Evansville, WY

1:09 PM MST on December 21, 2014 (GMT -0700)
MesoWest RENO HILL WY US SNOTEL | Change Station
CLOSE
Current Station
Personal Weather Station
Location: Evansville, WY
Elevation: 8500 ft
Nearby Weather Stations
Active Advisory: Special Statement

Elev 8500 ft 42.57 °N, 106.09 °W | Updated 19 hours ago

Cloudy
Cloudy
37 °F
Feels Like 25 °F
N
34
Wind Variable Wind from West
Gusts 47 mph

Today
High -- | Low -- °F
--% Chance of Precip.
Yesterday
High -- | Low -- °F
Precip. -- in
7:30 AM 4:34 PM
Waning Crescent, 0% visible
Pressure 29.50 in
Visibility 10.0 miles
Clouds Clear
Windchill 25 °F
Dew Point 34 °F
Humidity 83%
Rainfall 0.00 in
Snow Depth Not available.
UV 2 out of 12
Pollen .10 out of 12
Air Quality Not available.
Flu Activity Not available.
METAR KCPR 211953Z 21014G21KT 10SM CLR 04/M01 A2949 RMK AO2 SLP988 T00391011

More Conditions Fewer Conditions

Pressure 29.50 in
Visibility 10.0 miles
Clouds Clear
Windchill 25 °F
Dew Point 34 °F
Humidity 83%
Rainfall 0.00 in
Snow Depth Not available.
UV 2 out of 12
Pollen .10 out of 12
Air Quality Not available.
Flu Activity Not available.
METAR KCPR 211953Z 21014G21KT 10SM CLR 04/M01 A2949 RMK AO2 SLP988 T00391011

More Conditions Fewer Conditions

10-Day Weather Forecast

Almanac

Astronomy

Dec. 21, 2014 Rise Set
Actual Time
Civil Twilight
Nautical Twilight
Astronomical Twilight
Moon
Length of Visible Light
Length of Day
Tomorrow will be .
, % of the Moon is Illuminated

Today's Extremes

State Highs State Lows

Community

WunderPhotos

Upload Photos

1,779,471 photos uploaded!

WunderBlogs® & News

Nearby

Air Quality

  Air Quality AQ Index Pollutant
Not available.

Snow Depth

Station Depth Elevation

Earthquake Activity

City Distance Mag. Time & Date
Minimum magnitude displayed is 2.5.

Coastal Water Temperatures

Place Temperature

Nearby Weather Stations